Time;durP1;ratioP1;P1;durP2;ratioP2;P2;SDS_P1;SDS_P2;PMS_P1;PMS_P2;Temp;Humidity;BMP_temperature;BMP_pressure;BME280_temperature;BME280_humidity;BME280_pressure;Samples;Min_cycle;Max_cycle;Signal;HPM_P1;HPM_P2
2021/04/07 00:00:38;;;;;;;0.30;0.30;;;3.20;99.90;;;;;;5035078;28;20175;-78
2021/04/07 00:03:05;;;;;;;0.30;0.30;;;3.10;99.90;;;;;;5033754;28;20168;-77
2021/04/07 00:05:40;;;;;;;0.37;0.37;;;3.10;99.90;;;;;;5033594;28;20294;-77
2021/04/07 00:08:07;;;;;;;1.60;0.97;;;3.10;99.90;;;;;;5033519;28;20289;-77
2021/04/07 00:10:41;;;;;;;0.40;0.40;;;3.20;99.90;;;;;;5033572;28;20176;-76
2021/04/07 00:13:08;;;;;;;3.83;1.30;;;2.90;99.90;;;;;;5034894;28;20171;-77
2021/04/07 00:15:35;;;;;;;0.60;0.60;;;2.80;99.90;;;;;;5034395;28;20195;-77
2021/04/07 00:18:03;;;;;;;0.40;0.40;;;2.70;99.90;;;;;;5034902;28;20199;-76
2021/04/07 00:20:30;;;;;;;0.50;0.50;;;2.60;99.90;;;;;;5034881;28;20235;-76
2021/04/07 00:22:56;;;;;;;0.30;0.30;;;2.60;99.90;;;;;;5035065;28;20199;-75
2021/04/07 00:25:24;;;;;;;0.87;0.87;;;2.60;99.90;;;;;;5038114;28;20156;-76
2021/04/07 00:27:57;;;;;;;1.63;1.53;;;2.50;99.90;;;;;;5036811;28;20254;-76
2021/04/07 00:30:26;;;;;;;0.40;0.40;;;2.40;99.90;;;;;;5034593;28;20173;-77
2021/04/07 00:32:52;;;;;;;0.30;0.30;;;2.40;99.90;;;;;;5033289;28;20523;-76
2021/04/07 00:35:18;;;;;;;0.47;0.47;;;2.50;99.90;;;;;;5034457;28;20160;-76
2021/04/07 00:37:44;;;;;;;0.30;0.30;;;2.50;99.90;;;;;;5034391;28;20180;-76
2021/04/07 00:40:10;;;;;;;0.30;0.30;;;2.70;99.90;;;;;;5034203;28;20172;-76
2021/04/07 00:42:37;;;;;;;0.43;0.43;;;2.60;99.90;;;;;;5049607;28;20172;-76
2021/04/07 00:45:05;;;;;;;0.30;0.30;;;2.50;99.90;;;;;;5034152;28;20149;-76
2021/04/07 00:47:31;;;;;;;0.50;0.50;;;2.70;99.90;;;;;;5032692;28;20210;-76
2021/04/07 00:49:57;;;;;;;0.30;0.30;;;2.80;99.90;;;;;;5034129;28;20179;-76
2021/04/07 00:52:23;;;;;;;0.70;0.70;;;2.60;99.90;;;;;;5034004;28;20156;-77
2021/04/07 00:54:54;;;;;;;0.40;0.40;;;2.70;99.90;;;;;;5034057;28;20291;-77
2021/04/07 00:57:20;;;;;;;0.30;0.30;;;2.70;99.90;;;;;;5033923;28;20179;-77
2021/04/07 00:59:46;;;;;;;0.40;0.40;;;2.70;99.90;;;;;;5033910;28;20168;-77
2021/04/07 01:02:14;;;;;;;0.73;0.73;;;2.90;99.90;;;;;;5033473;28;20164;-77
2021/04/07 01:04:41;;;;;;;1.70;1.60;;;2.90;99.90;;;;;;5032562;28;20646;-77
2021/04/07 01:07:07;;;;;;;0.30;0.30;;;2.80;99.90;;;;;;5033691;28;20187;-77
2021/04/07 01:09:32;;;;;;;0.43;0.43;;;2.70;99.90;;;;;;5032257;28;20655;-77
2021/04/07 01:11:58;;;;;;;0.30;0.30;;;2.60;99.90;;;;;;5033797;28;20160;-77
2021/04/07 01:14:24;;;;;;;0.30;0.30;;;2.70;99.90;;;;;;5033645;28;20687;-77
2021/04/07 01:16:51;;;;;;;0.80;0.80;;;2.50;99.90;;;;;;5033370;28;20303;-77
2021/04/07 01:19:18;;;;;;;43.93;1.53;;;2.50;99.90;;;;;;5033565;28;20628;-77
2021/04/07 01:21:44;;;;;;;0.30;0.30;;;2.50;99.90;;;;;;5033781;28;20164;-76
2021/04/07 01:24:10;;;;;;;1.37;1.27;;;2.40;99.90;;;;;;5033587;28;20226;-77
2021/04/07 01:26:36;;;;;;;0.30;0.30;;;2.30;99.90;;;;;;5033282;28;20191;-77
2021/04/07 01:29:01;;;;;;;0.30;0.30;;;2.20;99.90;;;;;;5033296;28;20200;-77
2021/04/07 01:31:27;;;;;;;0.73;0.73;;;2.00;99.90;;;;;;5033373;28;20231;-78
2021/04/07 01:33:53;;;;;;;5.67;1.90;;;2.20;99.90;;;;;;5032003;28;20179;-77
2021/04/07 01:36:25;;;;;;;0.30;0.30;;;2.10;99.90;;;;;;5033308;28;20214;-77
2021/04/07 01:38:51;;;;;;;1.13;1.13;;;2.00;99.90;;;;;;5033217;28;20221;-76
2021/04/07 01:41:19;;;;;;;0.30;0.30;;;2.00;99.90;;;;;;5033290;28;20231;-76
2021/04/07 01:43:45;;;;;;;0.90;0.83;;;2.10;99.90;;;;;;5015527;28;20659;-76
2021/04/07 01:46:13;;;;;;;0.30;0.30;;;2.20;99.90;;;;;;5033108;28;20572;-76
2021/04/07 01:48:40;;;;;;;0.40;0.40;;;2.10;99.90;;;;;;5031653;28;20268;-76
2021/04/07 01:51:07;;;;;;;0.30;0.30;;;2.10;99.90;;;;;;5033177;28;20203;-76
2021/04/07 01:53:33;;;;;;;0.30;0.30;;;2.00;99.90;;;;;;5033145;28;20168;-76
2021/04/07 01:55:58;;;;;;;0.30;0.30;;;2.10;99.90;;;;;;5033146;28;20198;-77
2021/04/07 01:58:24;;;;;;;5.87;1.80;;;2.20;99.90;;;;;;5033121;28;20184;-76
2021/04/07 02:00:50;;;;;;;0.30;0.30;;;2.20;99.90;;;;;;5033133;28;20172;-75
2021/04/07 02:03:15;;;;;;;0.30;0.30;;;2.30;99.90;;;;;;5031784;28;20176;-77
2021/04/07 02:05:41;;;;;;;0.20;0.20;;;2.20;99.90;;;;;;5031639;28;20200;-76
2021/04/07 02:08:06;;;;;;;0.30;0.30;;;2.40;99.90;;;;;;5033030;28;20533;-75
2021/04/07 02:10:32;;;;;;;0.63;0.63;;;2.40;99.90;;;;;;5033043;28;20195;-76
2021/04/07 02:13:01;;;;;;;0.20;0.20;;;2.30;99.90;;;;;;5033027;28;20203;-76
2021/04/07 02:15:26;;;;;;;0.30;0.30;;;2.10;99.90;;;;;;5036283;28;20191;-76
2021/04/07 02:17:52;;;;;;;0.80;0.70;;;2.10;99.90;;;;;;5036799;28;20250;-76
2021/04/07 02:20:18;;;;;;;0.20;0.20;;;2.10;99.90;;;;;;5037034;28;20629;-76
2021/04/07 02:22:45;;;;;;;0.43;0.43;;;2.00;99.90;;;;;;5035560;28;20166;-77
2021/04/07 02:25:12;;;;;;;0.30;0.30;;;2.00;99.90;;;;;;5036921;28;20198;-77
2021/04/07 02:27:38;;;;;;;0.40;0.40;;;2.10;99.90;;;;;;5036764;28;20255;-76
2021/04/07 02:30:07;;;;;;;0.30;0.30;;;1.90;99.90;;;;;;5035406;28;20274;-76
2021/04/07 02:32:32;;;;;;;0.30;0.30;;;2.00;99.90;;;;;;5036719;28;20167;-76
2021/04/07 02:34:58;;;;;;;0.40;0.40;;;2.10;99.90;;;;;;5036654;28;20630;-76
2021/04/07 02:37:24;;;;;;;0.30;0.30;;;2.10;99.90;;;;;;5036569;28;20188;-77
2021/04/07 02:39:50;;;;;;;0.80;0.80;;;2.10;99.90;;;;;;5036629;28;20164;-76
2021/04/07 02:42:18;;;;;;;0.37;0.37;;;2.10;99.90;;;;;;5035206;28;20187;-77
2021/04/07 02:44:43;;;;;;;0.30;0.30;;;2.20;99.90;;;;;;5036408;28;20179;-77
2021/04/07 02:47:09;;;;;;;1.50;1.40;;;2.20;99.90;;;;;;5036269;28;20203;-77
2021/04/07 02:49:35;;;;;;;0.30;0.30;;;2.10;99.90;;;;;;5036506;28;20215;-76
2021/04/07 02:52:02;;;;;;;0.30;0.30;;;2.20;99.90;;;;;;5036437;28;20167;-77
2021/04/07 02:54:27;;;;;;;0.63;0.63;;;2.10;99.90;;;;;;5035067;28;20550;-77
2021/04/07 02:56:53;;;;;;;0.40;0.40;;;2.10;99.90;;;;;;5036188;28;20179;-77
2021/04/07 02:59:19;;;;;;;0.40;0.40;;;2.20;99.90;;;;;;5036136;28;20172;-76
2021/04/07 03:01:44;;;;;;;0.30;0.30;;;2.20;99.90;;;;;;5036344;28;20180;-77
2021/04/07 03:04:10;;;;;;;0.30;0.30;;;2.10;99.90;;;;;;5036296;28;20168;-76
2021/04/07 03:06:35;;;;;;;0.30;0.30;;;2.20;99.90;;;;;;5036016;28;20515;-77
2021/04/07 03:09:02;;;;;;;0.30;0.30;;;2.20;99.90;;;;;;5051450;28;20779;-76
2021/04/07 03:11:28;;;;;;;0.40;0.40;;;2.20;99.90;;;;;;5034779;28;20523;-76
2021/04/07 03:13:54;;;;;;;0.30;0.30;;;2.20;99.90;;;;;;5035957;28;20210;-77
2021/04/07 03:16:19;;;;;;;2.73;1.70;;;2.20;99.90;;;;;;5035643;28;20623;-77
2021/04/07 03:18:45;;;;;;;1.13;1.13;;;2.20;99.90;;;;;;5035760;28;20168;-77
2021/04/07 03:21:11;;;;;;;0.30;0.30;;;2.30;99.90;;;;;;5035974;28;20164;-76
2021/04/07 03:23:36;;;;;;;0.30;0.30;;;2.20;99.90;;;;;;5035770;28;20515;-76
2021/04/07 03:26:03;;;;;;;0.20;0.20;;;2.30;99.90;;;;;;5035476;28;20546;-77
2021/04/07 03:28:29;;;;;;;0.20;0.20;;;2.10;99.90;;;;;;5035581;28;20678;-76
2021/04/07 03:30:55;;;;;;;0.30;0.30;;;2.10;99.90;;;;;;5035524;28;20172;-76
2021/04/07 03:33:28;;;;;;;2.00;1.57;;;2.10;99.90;;;;;;5035538;28;20245;-77
2021/04/07 03:35:53;;;;;;;0.40;0.40;;;2.30;99.90;;;;;;5035339;28;20275;-77
2021/04/07 03:38:19;;;;;;;0.30;0.30;;;2.30;99.90;;;;;;5035543;28;20244;-76
2021/04/07 03:40:46;;;;;;;0.30;0.30;;;2.30;99.90;;;;;;5034235;28;20164;-76
2021/04/07 03:43:14;;;;;;;0.30;0.30;;;2.40;99.90;;;;;;5035255;28;20584;-77
2021/04/07 03:45:47;;;;;;;0.27;0.27;;;2.30;99.90;;;;;;5033850;28;20234;-77
2021/04/07 03:48:16;;;;;;;0.30;0.30;;;2.30;99.90;;;;;;5035041;28;20191;-76
2021/04/07 03:50:42;;;;;;;0.50;0.50;;;2.40;99.90;;;;;;5035618;28;20343;-76
2021/04/07 03:53:09;;;;;;;0.67;0.67;;;2.40;99.90;;;;;;5034169;28;20290;-76
2021/04/07 03:55:35;;;;;;;0.43;0.43;;;2.40;99.90;;;;;;5035045;28;20190;-77
2021/04/07 03:58:00;;;;;;;0.37;0.37;;;2.50;99.90;;;;;;5035152;28;20156;-76
2021/04/07 04:00:27;;;;;;;0.30;0.30;;;2.40;99.90;;;;;;5034840;28;20168;-77
2021/04/07 04:02:52;;;;;;;0.40;0.40;;;2.50;99.90;;;;;;5035030;28;20156;-77
2021/04/07 04:05:18;;;;;;;0.30;0.30;;;2.40;99.90;;;;;;5034903;28;20563;-76
2021/04/07 04:07:44;;;;;;;0.30;0.30;;;2.50;99.90;;;;;;5034658;28;20175;-77
2021/04/07 04:10:10;;;;;;;0.50;0.50;;;2.50;99.90;;;;;;5034822;28;20297;-76
2021/04/07 04:12:36;;;;;;;0.77;0.77;;;2.50;99.90;;;;;;5033214;28;20178;-76
2021/04/07 04:15:02;;;;;;;0.30;0.30;;;2.60;99.90;;;;;;5034838;28;20168;-76
2021/04/07 04:17:28;;;;;;;1.43;1.40;;;2.60;99.90;;;;;;5034381;28;20222;-76
2021/04/07 04:19:53;;;;;;;8.67;1.60;;;2.50;99.90;;;;;;5034589;28;20176;-76
2021/04/07 04:22:19;;;;;;;0.30;0.30;;;2.50;99.90;;;;;;5033264;28;20250;-76
2021/04/07 04:24:46;;;;;;;0.50;0.50;;;2.40;99.90;;;;;;5034350;28;20627;-76
2021/04/07 04:27:12;;;;;;;0.30;0.30;;;2.40;99.90;;;;;;5034355;28;20207;-76
2021/04/07 04:29:37;;;;;;;0.30;0.30;;;2.50;99.90;;;;;;5034343;28;20199;-77
2021/04/07 04:32:04;;;;;;;2.57;2.37;;;2.40;99.90;;;;;;5033035;28;20559;-76
2021/04/07 04:34:29;;;;;;;0.20;0.20;;;2.60;99.90;;;;;;5034289;28;20175;-77
2021/04/07 04:36:55;;;;;;;5.83;2.23;;;2.60;99.90;;;;;;5033592;28;20242;-76
2021/04/07 04:39:20;;;;;;;0.87;0.87;;;2.50;99.90;;;;;;5034263;28;20221;-77
2021/04/07 04:41:46;;;;;;;0.30;0.30;;;2.40;99.90;;;;;;5034368;28;20514;-76
2021/04/07 04:44:12;;;;;;;2.10;1.50;;;2.50;99.90;;;;;;5034108;28;20176;-76
2021/04/07 04:46:37;;;;;;;0.30;0.30;;;2.50;99.90;;;;;;5032663;28;20199;-75
2021/04/07 04:49:03;;;;;;;0.40;0.40;;;2.50;99.90;;;;;;5033964;28;20196;-76
2021/04/07 04:51:29;;;;;;;0.53;0.53;;;2.40;99.90;;;;;;5034056;28;20160;-76
2021/04/07 04:53:55;;;;;;;0.20;0.20;;;2.50;99.90;;;;;;5033896;28;20175;-76
2021/04/07 04:56:20;;;;;;;0.20;0.20;;;2.50;99.90;;;;;;5032290;28;20655;-76
2021/04/07 04:58:46;;;;;;;0.30;0.30;;;2.50;99.90;;;;;;5033947;28;20160;-76
2021/04/07 05:01:12;;;;;;;0.30;0.30;;;2.60;99.90;;;;;;5033937;28;20168;-77
2021/04/07 05:03:37;;;;;;;1.03;1.03;;;2.60;99.90;;;;;;5033632;28;20195;-76
2021/04/07 05:06:03;;;;;;;0.40;0.40;;;2.50;99.90;;;;;;5033656;28;20206;-76
2021/04/07 05:08:29;;;;;;;0.30;0.30;;;2.50;99.90;;;;;;5033715;28;20180;-76
2021/04/07 05:10:54;;;;;;;0.60;0.60;;;2.50;99.90;;;;;;5033567;28;20230;-76
2021/04/07 05:13:20;;;;;;;0.30;0.30;;;2.60;99.90;;;;;;5033646;28;20163;-77
2021/04/07 05:15:46;;;;;;;3.17;1.83;;;2.60;99.90;;;;;;5033047;28;20195;-77
2021/04/07 05:18:13;;;;;;;0.40;0.40;;;2.60;99.90;;;;;;5048852;28;20184;-76
2021/04/07 05:20:39;;;;;;;0.70;0.70;;;2.70;99.90;;;;;;5033241;28;20247;-76
2021/04/07 05:23:06;;;;;;;0.77;0.77;;;2.60;99.90;;;;;;5033085;28;20163;-76
2021/04/07 05:25:31;;;;;;;0.53;0.53;;;2.70;99.90;;;;;;5033404;28;20179;-76
2021/04/07 05:27:57;;;;;;;0.30;0.30;;;2.60;99.90;;;;;;5033330;28;20282;-76
2021/04/07 05:30:23;;;;;;;0.30;0.30;;;2.70;99.90;;;;;;5032064;28;20523;-77
2021/04/07 05:32:48;;;;;;;0.33;0.33;;;2.70;99.90;;;;;;5033225;28;20172;-76
2021/04/07 05:35:14;;;;;;;0.30;0.30;;;2.70;99.90;;;;;;5031928;28;20207;-78
2021/04/07 05:37:40;;;;;;;0.40;0.40;;;2.70;99.90;;;;;;5033141;28;20258;-76
2021/04/07 05:40:06;;;;;;;0.50;0.50;;;2.70;99.90;;;;;;5033008;28;20213;-78
2021/04/07 05:42:32;;;;;;;0.60;0.60;;;2.80;99.90;;;;;;5032860;28;20172;-76
2021/04/07 05:44:57;;;;;;;4.13;1.90;;;2.80;99.90;;;;;;5032904;28;20163;-76
2021/04/07 05:47:23;;;;;;;0.70;0.70;;;2.70;99.90;;;;;;5032766;28;20184;-76
2021/04/07 05:49:48;;;;;;;0.40;0.40;;;2.70;99.90;;;;;;5031923;28;20212;-76
2021/04/07 05:52:14;;;;;;;8.23;2.67;;;2.80;99.90;;;;;;5032813;28;20161;-77
2021/04/07 05:54:39;;;;;;;0.30;0.30;;;2.90;99.90;;;;;;5031547;28;20213;-76
2021/04/07 05:57:05;;;;;;;0.50;0.50;;;2.80;99.90;;;;;;5032765;28;20242;-77
2021/04/07 05:59:31;;;;;;;0.47;0.47;;;2.90;99.90;;;;;;5032519;28;20172;-76
2021/04/07 06:01:56;;;;;;;4.53;2.63;;;3.00;99.90;;;;;;5032732;28;20192;-77
2021/04/07 06:04:22;;;;;;;0.60;0.60;;;3.00;99.90;;;;;;5031287;28;20172;-78
2021/04/07 06:06:47;;;;;;;2.40;1.30;;;3.00;99.90;;;;;;5032559;28;20260;-78
2021/04/07 06:09:13;;;;;;;0.40;0.40;;;3.00;99.90;;;;;;5032831;28;20204;-78
2021/04/07 06:11:39;;;;;;;6.33;1.60;;;3.00;99.90;;;;;;5031542;28;20271;-78
2021/04/07 06:14:04;;;;;;;0.23;0.23;;;3.00;99.90;;;;;;5032804;28;20190;-77
2021/04/07 06:16:30;;;;;;;1.90;0.80;;;2.90;99.90;;;;;;5031124;28;20262;-78
2021/04/07 06:18:55;;;;;;;0.30;0.30;;;2.90;99.90;;;;;;5032650;28;20160;-78
2021/04/07 06:21:21;;;;;;;0.30;0.30;;;2.90;99.90;;;;;;5032707;28;20316;-77
2021/04/07 06:23:46;;;;;;;0.40;0.40;;;2.90;99.90;;;;;;5032707;28;20175;-78
2021/04/07 06:26:12;;;;;;;0.40;0.40;;;2.90;99.90;;;;;;5032668;28;20192;-77
2021/04/07 06:28:37;;;;;;;0.30;0.30;;;2.80;99.90;;;;;;5032685;28;20191;-77
2021/04/07 06:31:03;;;;;;;0.20;0.20;;;2.70;99.90;;;;;;5032523;28;20218;-77
2021/04/07 06:33:31;;;;;;;0.70;0.60;;;2.70;99.90;;;;;;5032589;28;20243;-77
2021/04/07 06:36:03;;;;;;;0.30;0.30;;;2.70;99.90;;;;;;5031054;28;20195;-77
2021/04/07 06:38:29;;;;;;;2.10;1.17;;;2.80;99.90;;;;;;5031179;28;20649;-79
2021/04/07 06:40:56;;;;;;;2.73;0.87;;;3.00;99.90;;;;;;5031000;28;20689;-77
2021/04/07 06:43:24;;;;;;;0.30;0.30;;;3.10;99.90;;;;;;5032391;28;20264;-79
2021/04/07 06:45:51;;;;;;;0.30;0.30;;;3.10;99.90;;;;;;5032453;28;20188;-77
2021/04/07 06:48:16;;;;;;;0.30;0.30;;;3.10;99.90;;;;;;5032182;28;20196;-79
2021/04/07 06:50:44;;;;;;;0.30;0.30;;;3.30;99.90;;;;;;5030974;28;20226;-78
2021/04/07 06:53:10;;;;;;;0.30;0.30;;;3.30;99.90;;;;;;5032460;28;20210;-79
2021/04/07 06:55:38;;;;;;;4.43;0.40;;;3.30;99.90;;;;;;5030955;28;20616;-79
2021/04/07 06:58:05;;;;;;;0.87;0.87;;;3.20;99.90;;;;;;5032062;28;20243;-78
2021/04/07 07:00:31;;;;;;;0.30;0.30;;;3.20;99.90;;;;;;5032600;28;20167;-79
2021/04/07 07:03:05;;;;;;;3.47;0.60;;;3.20;99.90;;;;;;5034623;28;20642;-78
2021/04/07 07:05:33;;;;;;;0.30;0.30;;;3.30;99.90;;;;;;5035464;28;20185;-78
2021/04/07 07:08:05;;;;;;;0.30;0.30;;;3.30;99.90;;;;;;5035454;28;20194;-79
2021/04/07 07:10:38;;;;;;;0.50;0.50;;;3.30;99.90;;;;;;5035647;28;20172;-79
2021/04/07 07:13:04;;;;;;;0.20;0.20;;;3.20;99.90;;;;;;5035723;28;20324;-79
2021/04/07 07:15:30;;;;;;;0.33;0.33;;;3.10;99.90;;;;;;5035328;28;20523;-78
2021/04/07 07:17:56;;;;;;;0.37;0.37;;;3.10;99.90;;;;;;5035604;28;20172;-78
2021/04/07 07:20:29;;;;;;;0.30;0.30;;;3.20;99.90;;;;;;5035746;28;20257;-78
2021/04/07 07:22:55;;;;;;;0.30;0.30;;;3.10;99.90;;;;;;5030433;28;20303;-78
2021/04/07 07:25:21;;;;;;;0.30;0.30;;;3.10;99.90;;;;;;5013562;28;20267;-77
2021/04/07 07:27:46;;;;;;;0.30;0.30;;;3.20;99.90;;;;;;5015643;28;20169;-76
2021/04/07 07:30:14;;;;;;;0.30;0.30;;;3.20;99.90;;;;;;5015735;28;20181;-76
2021/04/07 07:32:41;;;;;;;0.30;0.30;;;3.20;99.90;;;;;;5013979;28;20549;-77
2021/04/07 07:35:08;;;;;;;0.30;0.30;;;3.20;99.90;;;;;;5014224;28;20160;-77
2021/04/07 07:37:34;;;;;;;0.30;0.30;;;3.30;99.90;;;;;;5014283;28;20180;-78
2021/04/07 07:39:59;;;;;;;2.43;1.57;;;3.20;99.90;;;;;;5015590;28;20168;-76
2021/04/07 07:42:28;;;;;;;0.30;0.30;;;3.20;99.90;;;;;;5014238;28;20164;-77
2021/04/07 07:44:54;;;;;;;0.30;0.30;;;3.10;99.90;;;;;;5013871;28;20238;-76
2021/04/07 07:47:27;;;;;;;0.50;0.50;;;3.20;99.90;;;;;;5013942;28;20200;-76
2021/04/07 07:50:03;;;;;;;0.30;0.30;;;3.30;99.90;;;;;;5013884;28;20215;-77
2021/04/07 07:52:33;;;;;;;0.77;0.77;;;3.30;99.90;;;;;;5015308;28;20230;-76
2021/04/07 07:55:11;;;;;;;0.50;0.50;;;3.30;99.90;;;;;;5013756;28;20167;-77
2021/04/07 07:57:36;;;;;;;0.30;0.30;;;3.30;99.90;;;;;;5015492;28;20601;-77
2021/04/07 08:00:12;;;;;;;0.30;0.30;;;3.30;99.90;;;;;;5015146;28;20248;-76
2021/04/07 08:02:38;;;;;;;0.30;0.30;;;3.40;99.90;;;;;;5014953;28;20273;-76
2021/04/07 08:05:25;;;;;;;0.20;0.20;;;3.40;99.90;;;;;;5015183;28;20492;-76
2021/04/07 08:07:52;;;;;;;0.30;0.30;;;3.50;99.90;;;;;;5014866;28;20160;-76
2021/04/07 08:10:18;;;;;;;0.30;0.30;;;3.50;99.90;;;;;;5014832;28;20164;-78
2021/04/07 08:12:45;;;;;;;0.30;0.30;;;3.60;99.90;;;;;;5013725;28;20578;-76
2021/04/07 08:15:12;;;;;;;0.20;0.20;;;3.60;99.90;;;;;;5013379;28;20168;-77
2021/04/07 08:17:38;;;;;;;5.10;0.93;;;3.80;99.90;;;;;;5013835;28;20687;-75
2021/04/07 08:20:07;;;;;;;0.30;0.30;;;3.90;99.90;;;;;;5014428;28;20195;-76
2021/04/07 08:22:34;;;;;;;0.30;0.30;;;3.80;99.90;;;;;;5014589;28;20199;-75
2021/04/07 08:25:05;;;;;;;5.77;1.07;;;3.80;99.90;;;;;;5014515;28;20235;-76
2021/04/07 08:27:35;;;;;;;0.30;0.30;;;4.00;99.90;;;;;;5014435;28;20184;-82
2021/04/07 08:30:02;;;;;;;0.27;0.27;;;4.20;99.90;;;;;;5012803;28;20212;-76
2021/04/07 08:32:28;;;;;;;0.25;0.25;;;4.30;99.90;;;;;;5012744;28;20176;-76
2021/04/07 08:34:54;;;;;;;0.30;0.30;;;4.30;99.90;;;;;;5013085;28;20165;-76
2021/04/07 08:37:27;;;;;;;0.30;0.30;;;4.20;99.90;;;;;;5014315;28;20633;-76
2021/04/07 08:40:13;;;;;;;0.20;0.20;;;4.30;99.90;;;;;;5014318;28;20172;-77
2021/04/07 08:42:40;;;;;;;0.30;0.30;;;4.20;99.90;;;;;;5014282;28;20620;-76
2021/04/07 08:45:11;;;;;;;0.57;0.57;;;4.30;99.90;;;;;;5013398;28;20176;-78
2021/04/07 08:47:46;;;;;;;0.20;0.20;;;4.50;99.90;;;;;;5013811;28;20169;-77
2021/04/07 08:50:14;;;;;;;0.20;0.20;;;4.50;99.90;;;;;;5013319;28;20537;-78
2021/04/07 08:53:06;;;;;;;0.20;0.20;;;4.50;99.90;;;;;;5014249;28;20296;-80
2021/04/07 08:55:32;;;;;;;0.30;0.30;;;4.60;99.90;;;;;;5012635;28;20199;-77
2021/04/07 08:58:01;;;;;;;0.20;0.20;;;5.00;99.90;;;;;;5013851;28;20173;-77
2021/04/07 09:00:32;;;;;;;2.40;0.85;;;5.10;99.90;;;;;;5013446;28;20259;-77
2021/04/07 09:03:08;;;;;;;1.17;0.77;;;5.10;99.90;;;;;;5012724;28;20275;-82
2021/04/07 09:05:42;;;;;;;2.30;1.38;;;5.10;99.90;;;;;;5004318;28;20188;-77
2021/04/07 09:08:08;;;;;;;0.20;0.20;;;5.30;99.90;;;;;;5000467;28;20189;-76
2021/04/07 09:10:45;;;;;;;1.00;1.00;;;5.20;99.90;;;;;;4993914;28;20666;-76
2021/04/07 09:13:13;;;;;;;1.67;1.55;;;5.20;99.90;;;;;;4994140;28;20621;-76
2021/04/07 09:15:52;;;;;;;0.30;0.30;;;5.40;99.90;;;;;;4993638;28;20193;-78
2021/04/07 09:18:37;;;;;;;0.32;0.32;;;5.60;99.90;;;;;;4994034;28;20204;-77
2021/04/07 09:21:05;;;;;;;0.30;0.30;;;5.80;99.90;;;;;;4992373;28;20650;-77
2021/04/07 09:23:36;;;;;;;0.52;0.52;;;5.70;99.90;;;;;;4993299;28;20166;-75
2021/04/07 09:26:13;;;;;;;1.00;1.00;;;5.70;99.90;;;;;;4992703;28;20193;-76
2021/04/07 09:28:45;;;;;;;0.20;0.20;;;5.80;99.90;;;;;;5007950;28;20672;-76
2021/04/07 09:31:19;;;;;;;0.30;0.30;;;5.80;99.90;;;;;;5011827;28;20263;-76
2021/04/07 09:33:50;;;;;;;29.05;2.05;;;5.80;99.90;;;;;;5012880;28;20191;-74
2021/04/07 09:36:17;;;;;;;0.20;0.20;;;5.80;99.90;;;;;;5013088;28;20193;-76
2021/04/07 09:38:49;;;;;;;0.55;0.55;;;5.80;99.90;;;;;;5013429;28;20243;-75
2021/04/07 09:41:25;;;;;;;0.30;0.30;;;5.80;99.90;;;;;;5011711;28;20164;-76
2021/04/07 09:43:52;;;;;;;0.40;0.40;;;6.00;99.90;;;;;;5012012;28;20190;-76
2021/04/07 09:46:19;;;;;;;0.20;0.20;;;6.20;99.90;;;;;;5011341;28;20649;-76
2021/04/07 09:48:46;;;;;;;0.38;0.38;;;6.40;99.90;;;;;;5026738;28;20228;-75
2021/04/07 09:51:25;;;;;;;0.30;0.30;;;6.60;99.90;;;;;;5011779;28;20204;-76
2021/04/07 09:53:52;;;;;;;0.65;0.65;;;6.50;99.90;;;;;;5012725;28;20156;-76
2021/04/07 09:56:18;;;;;;;0.35;0.22;;;6.60;99.90;;;;;;5012898;28;20191;-77
2021/04/07 09:58:50;;;;;;;14.45;1.73;;;6.60;99.90;;;;;;5012990;28;20603;-77
2021/04/07 10:01:17;;;;;;;0.40;0.40;;;6.80;99.90;;;;;;5012524;28;20168;-77
2021/04/07 10:03:57;;;;;;;9.10;1.73;;;6.70;99.90;;;;;;5013033;28;20609;-76
2021/04/07 10:06:25;;;;;;;0.68;0.68;;;6.70;99.90;;;;;;5012750;28;20190;-77
2021/04/07 10:08:58;;;;;;;1.73;1.63;;;6.60;99.90;;;;;;5011432;28;20192;-77
2021/04/07 10:11:23;;;;;;;0.90;0.63;;;6.70;99.90;;;;;;5010109;28;20608;-76
2021/04/07 10:13:49;;;;;;;1.95;1.85;;;6.70;99.90;;;;;;5012371;28;20192;-76
2021/04/07 10:16:15;;;;;;;0.20;0.20;;;6.70;99.90;;;;;;5012225;28;20255;-76
2021/04/07 10:18:43;;;;;;;0.40;0.40;;;6.90;99.90;;;;;;5011883;28;20216;-77
2021/04/07 10:21:17;;;;;;;3.95;1.55;;;7.30;99.90;;;;;;5012651;28;20252;-77
2021/04/07 10:23:46;;;;;;;0.32;0.32;;;7.20;99.90;;;;;;5011572;28;20172;-77
2021/04/07 10:26:13;;;;;;;0.20;0.20;;;7.30;99.90;;;;;;5012140;28;20231;-77
2021/04/07 10:28:38;;;;;;;0.38;0.38;;;7.40;99.90;;;;;;5011441;28;20231;-75
2021/04/07 10:31:09;;;;;;;3.67;0.95;;;7.20;99.90;;;;;;5012747;28;20379;-76
2021/04/07 10:33:34;;;;;;;0.35;0.35;;;7.20;99.90;;;;;;5011396;28;20541;-76
2021/04/07 10:36:01;;;;;;;1.05;1.00;;;7.30;99.90;;;;;;5013605;28;20224;-76
2021/04/07 10:38:35;;;;;;;4.53;2.33;;;7.30;99.90;;;;;;5015217;28;20254;-75
2021/04/07 10:41:04;;;;;;;0.20;0.20;;;7.50;99.90;;;;;;5016360;28;20168;-75
2021/04/07 10:43:35;;;;;;;0.63;0.63;;;7.70;99.90;;;;;;5014710;28;20172;-76
2021/04/07 10:46:03;;;;;;;0.68;0.68;;;7.70;99.90;;;;;;5019661;28;20207;-76
2021/04/07 10:48:29;;;;;;;1.60;1.40;;;7.70;99.90;;;;;;5013823;28;20204;-77
2021/04/07 10:50:56;;;;;;;6.00;0.57;;;7.40;99.90;;;;;;5014603;28;20181;-77
2021/04/07 10:53:38;;;;;;;0.20;0.20;;;7.40;99.90;;;;;;5014829;28;20180;-76
2021/04/07 10:56:18;;;;;;;1.45;0.45;;;7.40;99.90;;;;;;5015946;28;20537;-77
2021/04/07 10:58:44;;;;;;;0.85;0.85;;;7.10;99.90;;;;;;5016285;28;20164;-78
2021/04/07 11:01:10;;;;;;;0.52;0.40;;;7.20;99.90;;;;;;5015080;28;20169;-77
2021/04/07 11:03:36;;;;;;;9.80;0.70;;;7.00;99.90;;;;;;5015420;28;20256;-78
2021/04/07 11:06:05;;;;;;;0.30;0.30;;;6.80;99.90;;;;;;5016259;28;20188;-79
2021/04/07 11:08:38;;;;;;;11.70;1.38;;;6.90;99.90;;;;;;5014667;28;20658;-77
2021/04/07 11:11:05;;;;;;;2.55;1.20;;;6.90;99.90;;;;;;5014050;28;20259;-78
2021/04/07 11:13:32;;;;;;;0.50;0.50;;;6.80;99.90;;;;;;5015130;28;20165;-78
2021/04/07 11:16:11;;;;;;;0.50;0.50;;;6.70;99.90;;;;;;5015595;28;20228;-77
2021/04/07 11:18:40;;;;;;;1.33;0.65;;;6.80;99.90;;;;;;5015459;28;20674;-75
2021/04/07 11:21:07;;;;;;;0.45;0.45;;;6.80;99.90;;;;;;5014953;28;20220;-75
2021/04/07 11:23:35;;;;;;;0.40;0.40;;;6.80;99.90;;;;;;5014313;28;20183;-76
2021/04/07 11:26:02;;;;;;;0.38;0.38;;;6.80;99.90;;;;;;5015237;28;20917;-77
2021/04/07 11:28:28;;;;;;;0.30;0.30;;;6.90;99.90;;;;;;5015746;28;20192;-77
2021/04/07 11:31:02;;;;;;;0.28;0.28;;;7.00;99.90;;;;;;5013740;28;20184;-77
2021/04/07 11:34:12;;;;;;;0.75;0.75;;;7.20;99.90;;;;;;5015425;28;20161;-77
2021/04/07 11:36:27;;;;;;;1.63;1.52;;;7.20;99.90;;;;;;5012021;28;20197;-78
2021/04/07 11:46:39;;;;;;;0.20;0.20;;;7.40;99.90;;;;;;5014668;28;20196;-77
2021/04/07 11:49:08;;;;;;;3.58;1.83;;;7.40;99.90;;;;;;5014764;28;20201;-77
2021/04/07 11:51:38;;;;;;;0.75;0.75;;;7.50;99.90;;;;;;5015143;28;20184;-78
2021/04/07 11:54:11;;;;;;;4.15;0.77;;;7.70;99.90;;;;;;5014941;28;20616;-77
2021/04/07 11:56:45;;;;;;;0.82;0.82;;;7.80;99.90;;;;;;5014565;28;20626;-76
2021/04/07 11:59:17;;;;;;;0.38;0.38;;;7.90;99.90;;;;;;5015052;28;20149;-77
2021/04/07 12:01:45;;;;;;;0.10;0.10;;;8.10;99.90;;;;;;5013637;28;20173;-80
2021/04/07 12:04:11;;;;;;;0.20;0.20;;;8.10;99.90;;;;;;5014963;28;20252;-75
2021/04/07 12:06:37;;;;;;;0.20;0.20;;;8.00;99.90;;;;;;5014562;28;20311;-78
2021/04/07 12:09:04;;;;;;;0.30;0.30;;;8.10;99.90;;;;;;5014640;28;20208;-77
2021/04/07 12:11:30;;;;;;;0.20;0.20;;;8.20;99.90;;;;;;5014498;28;20260;-78
2021/04/07 12:13:56;;;;;;;0.20;0.20;;;8.00;99.90;;;;;;5014629;28;20168;-78
2021/04/07 12:16:22;;;;;;;4.90;0.40;;;7.90;99.90;;;;;;5012526;28;20262;-76
2021/04/07 12:18:47;;;;;;;0.20;0.20;;;8.20;99.90;;;;;;5014441;28;20640;-78
2021/04/07 12:21:15;;;;;;;0.85;0.85;;;8.50;99.90;;;;;;5014528;28;20168;-80
2021/04/07 12:23:57;;;;;;;1.90;0.98;;;8.40;99.90;;;;;;5013736;28;20172;-79
2021/04/07 12:26:23;;;;;;;0.20;0.20;;;8.20;99.90;;;;;;5014264;28;20192;-77
2021/04/07 12:28:48;;;;;;;0.32;0.32;;;8.10;99.90;;;;;;5012463;28;20254;-75
2021/04/07 12:31:20;;;;;;;1.17;1.08;;;7.70;99.90;;;;;;5011477;28;20271;-76
2021/04/07 12:33:51;;;;;;;0.40;0.40;;;7.60;99.90;;;;;;5011496;28;20173;-79
2021/04/07 12:36:17;;;;;;;0.20;0.20;;;7.80;99.90;;;;;;5012393;28;20530;-79
2021/04/07 12:38:43;;;;;;;0.32;0.32;;;8.00;99.90;;;;;;5014027;28;20160;-79
2021/04/07 12:44:02;;;;;;;8.93;0.95;;;8.40;99.90;;;;;;5005627;28;20239;-79
2021/04/07 12:46:27;;;;;;;0.22;0.22;;;8.70;99.90;;;;;;5012547;28;20200;-79
2021/04/07 12:48:53;;;;;;;0.10;0.10;;;8.90;99.90;;;;;;5013794;28;20604;-79
2021/04/07 12:51:20;;;;;;;1.33;0.75;;;8.80;99.90;;;;;;5013473;28;20173;-78
2021/04/07 12:53:47;;;;;;;1.00;0.95;;;8.80;99.90;;;;;;5012627;28;20527;-79
2021/04/07 12:56:16;;;;;;;0.55;0.55;;;8.70;99.90;;;;;;5013469;28;20189;-77
2021/04/07 12:58:46;;;;;;;1.65;0.55;;;8.70;99.90;;;;;;5013574;28;20168;-77
2021/04/07 13:01:12;;;;;;;2.15;0.93;;;8.40;99.90;;;;;;5012239;28;20566;-78
2021/04/07 13:03:38;;;;;;;0.20;0.20;;;8.30;99.90;;;;;;5013692;28;20295;-78
2021/04/07 13:06:04;;;;;;;0.50;0.50;;;8.30;99.90;;;;;;5013541;28;20226;-77
2021/04/07 13:08:30;;;;;;;0.43;0.43;;;8.30;99.90;;;;;;5012539;28;20199;-79
2021/04/07 13:10:56;;;;;;;0.43;0.43;;;8.20;99.90;;;;;;5012759;28;20180;-75